Time;durP1;ratioP1;P1;durP2;ratioP2;P2;SDS_P1;SDS_P2;PMS_P1;PMS_P2;Temp;Humidity;BMP_temperature;BMP_pressure;BME280_temperature;BME280_humidity;BME280_pressure;Samples;Min_cycle;Max_cycle;Signal;HPM_P1;HPM_P2
2022/02/17 00:01:43;;;;;;;6.47;3.40;;;;;;;7.66;68.94;96878.09;2154446;83;20935;-82
2022/02/17 00:04:44;;;;;;;8.60;3.30;;;;;;;7.72;68.99;96857.71;2154595;83;20967;-81
2022/02/17 00:07:45;;;;;;;8.43;3.63;;;;;;;7.78;68.83;96834.28;2154340;83;21077;-81
2022/02/17 00:10:45;;;;;;;9.93;4.23;;;;;;;7.77;68.76;96828.23;2152778;83;21021;-78
2022/02/17 00:13:46;;;;;;;8.47;3.97;;;;;;;7.81;68.56;96826.06;2152498;83;21350;-77
2022/02/17 00:16:48;;;;;;;8.93;4.07;;;;;;;7.84;68.56;96827.77;2152438;83;21350;-77
2022/02/17 00:19:48;;;;;;;11.23;4.03;;;;;;;7.83;68.75;96798.77;2152962;83;21407;-82
2022/02/17 00:22:49;;;;;;;11.63;3.90;;;;;;;7.84;68.78;96784.47;2153985;83;20975;-83
2022/02/17 00:25:49;;;;;;;7.37;3.70;;;;;;;7.87;68.80;96776.64;2155243;83;20943;-82
2022/02/17 00:28:51;;;;;;;7.00;3.73;;;;;;;7.89;68.86;96787.02;2155269;83;21003;-82
2022/02/17 00:31:51;;;;;;;4.87;3.60;;;;;;;7.87;68.97;96797.42;2154876;83;20971;-82
2022/02/17 00:34:52;;;;;;;16.93;4.23;;;;;;;7.87;69.30;96790.93;2155361;83;20972;-83
2022/02/17 00:37:53;;;;;;;16.40;3.80;;;;;;;7.87;69.26;96807.81;2155262;83;21367;-83
2022/02/17 00:40:53;;;;;;;9.80;3.43;;;;;;;7.88;69.45;96806.08;2155137;81;21047;-83
2022/02/17 00:43:54;;;;;;;7.13;3.80;;;;;;;7.89;69.66;96813.00;2154950;83;21038;-82
2022/02/17 00:46:57;;;;;;;5.83;3.73;;;;;;;7.89;69.47;96802.17;2155329;83;20928;-82
2022/02/17 00:49:57;;;;;;;14.00;4.30;;;;;;;7.89;69.69;96796.97;2155378;83;20987;-83
2022/02/17 00:52:58;;;;;;;5.13;3.67;;;;;;;7.88;69.59;96770.57;2155209;83;21271;-82
2022/02/17 00:55:58;;;;;;;18.50;4.13;;;;;;;7.89;69.63;96761.05;2155187;83;20896;-83
2022/02/17 00:58:59;;;;;;;16.63;4.00;;;;;;;7.89;69.90;96738.96;2154749;83;20980;-83
2022/02/17 01:02:00;;;;;;;4.77;3.57;;;;;;;7.90;69.80;96725.09;2154868;83;20991;-82
2022/02/17 01:05:00;;;;;;;5.63;3.40;;;;;;;7.92;69.72;96720.74;2154812;83;20916;-84
2022/02/17 01:08:00;;;;;;;5.37;3.70;;;;;;;7.93;69.75;96705.14;2154964;83;20994;-82
2022/02/17 01:11:01;;;;;;;21.80;4.00;;;;;;;7.96;69.91;96691.25;2155228;83;20939;-82
2022/02/17 01:14:02;;;;;;;12.37;3.70;;;;;;;7.94;69.86;96666.59;2155242;83;20935;-83
2022/02/17 01:17:02;;;;;;;20.43;4.10;;;;;;;7.95;69.88;96683.04;2154812;83;20889;-82
2022/02/17 01:20:03;;;;;;;6.13;3.60;;;;;;;7.96;69.98;96688.66;2154557;83;21366;-82
2022/02/17 01:23:03;;;;;;;56.67;5.33;;;;;;;7.95;70.21;96677.41;2154560;83;20928;-81
2022/02/17 01:26:03;;;;;;;5.73;3.00;;;;;;;7.96;70.42;96644.49;2154680;83;20982;-81
2022/02/17 01:29:04;;;;;;;5.13;3.00;;;;;;;7.96;70.35;96645.80;2154484;83;20965;-81
2022/02/17 01:32:05;;;;;;;6.57;3.30;;;;;;;7.94;70.57;96620.27;2154619;83;20919;-82
2022/02/17 01:35:05;;;;;;;13.03;3.30;;;;;;;7.95;70.41;96589.52;2154471;83;20976;-82
2022/02/17 01:38:05;;;;;;;9.80;3.20;;;;;;;7.95;70.70;96598.17;2154337;83;20960;-82
2022/02/17 01:41:06;;;;;;;11.70;3.10;;;;;;;7.94;70.62;96584.77;2154032;81;20964;-82
2022/02/17 01:44:06;;;;;;;17.10;3.33;;;;;;;7.93;70.83;96576.99;2154249;83;21334;-81
2022/02/17 01:47:08;;;;;;;5.00;3.27;;;;;;;7.92;70.99;96563.14;2154206;83;21343;-81
2022/02/17 01:50:08;;;;;;;43.00;5.07;;;;;;;7.94;71.27;96543.20;2154344;83;20976;-81
2022/02/17 01:53:09;;;;;;;6.67;2.63;;;;;;;7.97;71.25;96543.16;2154192;83;20964;-82
2022/02/17 01:56:09;;;;;;;42.90;4.07;;;;;;;7.99;71.24;96530.14;2154413;83;21308;-81
2022/02/17 01:59:10;;;;;;;8.00;3.03;;;;;;;8.02;71.03;96521.01;2154430;83;20956;-81
2022/02/17 02:02:10;;;;;;;16.30;3.70;;;;;;;8.04;71.18;96507.99;2154611;83;20908;-82
2022/02/17 02:05:11;;;;;;;10.03;3.27;;;;;;;8.04;71.35;96502.36;2154464;83;21007;-81
2022/02/17 02:08:11;;;;;;;30.20;4.30;;;;;;;8.08;71.40;96489.73;2154407;83;20991;-82
2022/02/17 02:11:12;;;;;;;8.03;3.53;;;;;;;8.11;72.17;96493.58;2154507;83;20963;-81
2022/02/17 02:14:12;;;;;;;13.37;3.70;;;;;;;8.10;74.22;96494.47;2154310;83;20932;-82
2022/02/17 02:17:13;;;;;;;8.77;3.53;;;;;;;7.98;76.10;96465.64;2154354;83;21331;-82
2022/02/17 02:20:13;;;;;;;7.83;4.37;;;;;;;7.81;78.42;96483.66;2154351;83;21386;-82
2022/02/17 02:23:14;;;;;;;4.30;3.90;;;;;;;7.68;77.99;96465.64;2154391;83;21335;-83
2022/02/17 02:26:14;;;;;;;5.40;3.83;;;;;;;7.59;78.88;96445.00;2154442;83;20928;-84
2022/02/17 02:29:15;;;;;;;6.07;4.37;;;;;;;7.51;80.25;96410.51;2154233;83;20952;-83
2022/02/17 02:32:16;;;;;;;4.93;4.20;;;;;;;7.44;80.92;96392.02;2153445;83;20912;-83
2022/02/17 02:35:16;;;;;;;4.40;3.83;;;;;;;7.43;81.68;96407.61;2153483;83;20951;-83
2022/02/17 02:38:17;;;;;;;3.77;3.30;;;;;;;7.41;81.68;96410.23;2154120;83;20956;-82
2022/02/17 02:41:17;;;;;;;4.27;3.83;;;;;;;7.40;82.56;96392.08;2154136;80;21359;-84
2022/02/17 02:44:18;;;;;;;4.03;3.10;;;;;;;7.41;82.84;96365.25;2154262;83;21351;-82
2022/02/17 02:47:18;;;;;;;3.53;3.23;;;;;;;7.43;83.31;96381.66;2154339;83;21507;-83
2022/02/17 02:50:19;;;;;;;4.87;3.37;;;;;;;7.44;82.75;96368.66;2154241;83;20960;-83
2022/02/17 02:53:19;;;;;;;5.40;3.40;;;;;;;7.49;83.03;96365.55;2154083;83;21006;-83
2022/02/17 02:56:20;;;;;;;5.00;2.90;;;;;;;7.49;83.17;96359.05;2154083;83;20986;-82
2022/02/17 02:59:22;;;;;;;4.00;3.30;;;;;;;7.52;83.79;96347.77;2153804;83;21391;-83
2022/02/17 03:02:22;;;;;;;3.97;3.03;;;;;;;7.55;83.45;96334.30;2154396;83;20936;-85
2022/02/17 03:05:23;;;;;;;5.00;3.40;;;;;;;7.58;83.89;96325.16;2154326;83;20931;-81
2022/02/17 03:08:23;;;;;;;5.37;3.60;;;;;;;7.60;84.20;96307.82;2154284;81;21490;-83
2022/02/17 03:11:24;;;;;;;6.07;3.60;;;;;;;7.58;85.41;96306.98;2153873;83;20951;-82
2022/02/17 03:14:24;;;;;;;4.70;3.50;;;;;;;7.54;87.40;96272.88;2154357;83;21358;-81
2022/02/17 03:17:25;;;;;;;4.17;3.40;;;;;;;7.50;86.31;96269.92;2154106;83;20975;-83
2022/02/17 03:20:25;;;;;;;6.27;4.00;;;;;;;7.48;87.00;96256.11;2154081;83;20956;-83
2022/02/17 03:23:26;;;;;;;4.37;3.67;;;;;;;7.48;86.95;96269.53;2154173;83;21363;-83
2022/02/17 03:26:26;;;;;;;5.63;3.63;;;;;;;7.49;87.92;96270.80;2154184;83;21346;-82
2022/02/17 03:29:26;;;;;;;4.87;4.00;;;;;;;7.49;87.57;96266.91;2154106;83;20924;-83
2022/02/17 03:32:27;;;;;;;4.17;3.73;;;;;;;7.50;88.01;96250.45;2154248;83;20924;-82
2022/02/17 03:35:28;;;;;;;3.83;3.27;;;;;;;7.49;86.92;96252.64;2154438;83;20916;-82
2022/02/17 03:38:28;;;;;;;3.27;2.97;;;;;;;7.51;87.16;96243.52;2155669;82;20927;-84
2022/02/17 03:41:28;;;;;;;3.80;3.33;;;;;;;7.55;87.67;96242.14;2165788;80;20963;-82
2022/02/17 03:44:29;;;;;;;3.37;3.07;;;;;;;7.57;86.98;96244.27;2154530;83;20975;-83
2022/02/17 03:47:29;;;;;;;3.03;2.80;;;;;;;7.59;86.69;96235.16;2154398;83;20948;-82
2022/02/17 03:50:30;;;;;;;3.00;2.70;;;;;;;7.61;87.21;96240.73;2154324;83;20924;-83
2022/02/17 03:53:30;;;;;;;2.80;2.60;;;;;;;7.63;87.18;96225.13;2154492;83;21318;-84
2022/02/17 03:56:31;;;;;;;3.13;2.93;;;;;;;7.66;87.23;96226.38;2153948;83;20987;-83
2022/02/17 03:59:31;;;;;;;3.70;3.17;;;;;;;7.67;87.58;96219.86;2153672;83;21017;-82
2022/02/17 04:02:32;;;;;;;4.03;3.07;;;;;;;7.68;87.21;96203.39;2154380;83;21263;-82
2022/02/17 04:05:32;;;;;;;3.87;2.97;;;;;;;7.69;87.39;96199.05;2153539;83;20955;-82
2022/02/17 04:08:33;;;;;;;3.37;3.07;;;;;;;7.72;87.75;96198.14;2152722;83;20960;-82
2022/02/17 04:11:34;;;;;;;4.40;3.77;;;;;;;7.74;87.55;96214.11;2154312;83;21371;-83
2022/02/17 04:14:34;;;;;;;4.60;4.10;;;;;;;7.75;87.21;96214.96;2154356;83;20999;-83
2022/02/17 04:17:35;;;;;;;3.90;3.50;;;;;;;7.77;88.04;96218.38;2153282;83;20951;-84
2022/02/17 04:20:35;;;;;;;3.67;3.37;;;;;;;7.82;87.48;96184.98;2152883;83;21014;-83
2022/02/17 04:23:36;;;;;;;4.57;3.43;;;;;;;7.83;87.51;96177.60;2154067;83;20943;-83
2022/02/17 04:26:36;;;;;;;3.07;2.77;;;;;;;7.83;87.05;96162.02;2152682;83;20986;-83
2022/02/17 04:29:36;;;;;;;3.73;3.40;;;;;;;7.84;87.30;96148.59;2151873;83;21069;-80
2022/02/17 04:32:37;;;;;;;3.90;3.50;;;;;;;7.85;86.92;96174.97;2152497;83;21409;-83
2022/02/17 04:35:38;;;;;;;4.40;3.50;;;;;;;7.90;87.57;96140.67;2152412;83;21345;-82
2022/02/17 04:38:38;;;;;;;6.63;3.60;;;;;;;7.96;87.76;96136.20;2152353;83;20940;-82
2022/02/17 04:44:58;;;;;;;4.30;3.87;;;;;;;8.00;87.22;96114.92;2154021;83;21365;-83
2022/02/17 04:51:01;;;;;;;3.93;3.30;;;;;;;8.12;86.89;96089.97;2135148;83;21041;-83
2022/02/17 04:54:01;;;;;;;4.87;3.97;;;;;;;8.15;86.88;96078.66;2152794;83;20974;-83
2022/02/17 04:57:02;;;;;;;5.50;4.27;;;;;;;8.17;86.69;96083.37;2153489;83;21019;-84
2022/02/17 05:00:03;;;;;;;4.60;3.27;;;;;;;8.20;86.68;96071.61;2153822;83;20955;-81
2022/02/17 05:03:04;;;;;;;4.00;3.60;;;;;;;8.20;86.58;96065.97;2153792;83;21058;-81
2022/02/17 05:06:04;;;;;;;6.47;3.33;;;;;;;8.25;86.44;96052.86;2154153;83;20964;-83
2022/02/17 05:09:05;;;;;;;6.37;3.60;;;;;;;8.32;86.83;96049.23;2155880;82;21066;-83
2022/02/17 05:12:05;;;;;;;4.23;3.43;;;;;;;8.41;87.11;96036.48;2166619;82;20953;-83
2022/02/17 05:15:06;;;;;;;7.80;3.40;;;;;;;8.51;86.84;96040.58;2155427;82;21298;-82
2022/02/17 05:18:06;;;;;;;3.70;2.43;;;;;;;8.57;86.55;96037.37;2152895;83;21475;-80
2022/02/17 05:21:07;;;;;;;3.03;2.73;;;;;;;8.61;86.47;96000.45;2152818;83;21021;-85
2022/02/17 05:24:07;;;;;;;3.70;2.60;;;;;;;8.68;86.19;96003.78;2153171;83;20948;-83
2022/02/17 05:27:08;;;;;;;2.90;2.40;;;;;;;8.75;85.80;95992.32;2153756;83;21006;-83
2022/02/17 05:30:09;;;;;;;3.20;2.43;;;;;;;8.79;85.44;96001.30;2152658;83;20982;-81
2022/02/17 05:33:09;;;;;;;4.23;2.53;;;;;;;8.83;85.46;95996.42;2151938;83;20971;-82
2022/02/17 05:36:10;;;;;;;4.13;2.67;;;;;;;8.85;85.12;95994.64;2151926;83;21006;-79
2022/02/17 05:39:10;;;;;;;2.90;2.63;;;;;;;8.87;85.04;95982.89;2152122;83;21010;-84
2022/02/17 05:42:10;;;;;;;150.67;13.57;;;;;;;8.87;84.95;95973.34;2151909;81;20983;-85
2022/02/17 05:45:12;;;;;;;8.70;2.80;;;;;;;9.37;87.57;96021.83;2151039;83;20971;-85
2022/02/17 05:48:13;;;;;;;8.23;2.60;;;;;;;10.37;80.56;96007.99;2151654;83;21098;-83
2022/02/17 05:51:13;;;;;;;3.10;2.60;;;;;;;10.00;79.98;95978.31;2151921;83;21002;-83
2022/02/17 05:54:14;;;;;;;4.00;2.50;;;;;;;9.72;80.63;95987.42;2151604;83;21007;-83
2022/02/17 05:57:14;;;;;;;3.13;2.47;;;;;;;9.57;81.09;95989.59;2151985;83;20996;-82
2022/02/17 06:00:15;;;;;;;3.60;2.50;;;;;;;9.50;81.42;95993.23;2152387;83;21061;-85
2022/02/17 06:03:16;;;;;;;3.23;2.10;;;;;;;9.45;81.50;95996.42;2151843;83;20959;-82
2022/02/17 06:06:16;;;;;;;1.67;1.57;;;;;;;9.45;81.90;95974.30;2152718;83;20963;-83
2022/02/17 06:12:19;;;;;;;11.70;3.93;;;;;;;9.43;86.36;96076.77;2137204;83;21436;-84
2022/02/17 06:15:20;;;;;;;4.03;2.47;;;;;;;9.27;84.24;96090.66;2152998;83;21005;-85
2022/02/17 06:18:20;;;;;;;3.73;2.40;;;;;;;9.11;82.21;96082.41;2153301;82;21014;-84
2022/02/17 06:21:21;;;;;;;2.70;2.07;;;;;;;8.88;83.07;96111.61;2153114;83;21085;-85
2022/02/17 06:24:21;;;;;;;9.57;2.90;;;;;;;8.62;83.82;96117.42;2152283;83;21001;-82
2022/02/17 06:27:22;;;;;;;3.60;2.37;;;;;;;8.40;84.93;96129.21;2151630;83;21004;-85
2022/02/17 06:30:22;;;;;;;4.30;3.20;;;;;;;8.17;85.17;96140.53;2151081;83;21082;-83
2022/02/17 06:33:23;;;;;;;5.77;2.90;;;;;;;8.00;86.02;96147.39;2150992;83;21474;-83
2022/02/17 06:36:23;;;;;;;6.00;2.83;;;;;;;7.87;86.81;96150.69;2151774;83;21434;-84
2022/02/17 06:39:24;;;;;;;5.03;2.53;;;;;;;7.75;87.89;96160.43;2152871;83;21102;-83
2022/02/17 06:42:25;;;;;;;4.50;2.70;;;;;;;7.46;88.28;96149.31;2152012;81;21046;-83
2022/02/17 06:45:27;;;;;;;5.47;2.30;;;;;;;7.46;88.28;96149.31;2135621;83;20999;-83
2022/02/17 06:48:28;;;;;;;5.90;2.27;;;;;;;7.29;88.56;96158.27;2152235;83;20982;-84
2022/02/17 06:51:28;;;;;;;6.93;3.00;;;;;;;7.14;87.57;96171.50;2152326;83;20920;-84
2022/02/17 06:54:29;;;;;;;8.47;3.27;;;;;;;6.94;86.77;96197.78;2152461;83;20981;-85
2022/02/17 06:57:30;;;;;;;4.70;2.40;;;;;;;6.78;85.99;96213.56;2152106;83;21915;-83
2022/02/17 07:00:31;;;;;;;5.03;2.17;;;;;;;6.54;85.89;96238.11;2152139;83;21095;-85
2022/02/17 07:03:31;;;;;;;5.80;3.50;;;;;;;6.37;86.58;96235.75;2151504;83;21042;-84
2022/02/17 07:12:37;;;;;;;9.23;3.00;;;;;;;6.00;87.90;96221.08;2123067;84;20975;-85
2022/02/17 07:15:37;;;;;;;6.53;3.07;;;;;;;5.88;88.16;96207.81;2147507;83;20968;-85
2022/02/17 07:18:44;;;;;;;9.80;2.67;;;;;;;5.76;88.12;96207.52;2136944;83;21027;-85
2022/02/17 07:21:44;;;;;;;7.37;2.33;;;;;;;5.65;88.36;96189.10;2135545;83;21057;-86
2022/02/17 07:24:48;;;;;;;8.08;3.12;;;;;;;5.53;88.64;96180.19;2136060;83;21996;-85
2022/02/17 07:27:49;;;;;;;8.43;3.33;;;;;;;5.44;88.93;96177.25;2134741;83;20998;-86
2022/02/17 07:30:50;;;;;;;11.60;3.77;;;;;;;5.39;89.64;96195.84;2151900;83;20960;-84
2022/02/17 07:33:50;;;;;;;7.47;4.30;;;;;;;5.36;90.31;96223.05;2152410;83;21046;-83
2022/02/17 07:36:51;;;;;;;9.73;3.07;;;;;;;5.34;90.10;96223.05;2150994;83;21027;-86
2022/02/17 07:42:53;;;;;;;11.67;6.40;;;;;;;5.32;91.14;96235.14;2155527;82;21033;-85
2022/02/17 07:45:54;;;;;;;10.13;6.67;;;;;;;5.33;91.10;96248.50;2172850;81;20962;-85
2022/02/17 07:48:55;;;;;;;11.60;7.80;;;;;;;5.35;91.93;96246.76;2173260;81;21032;-84
2022/02/17 07:54:57;;;;;;;12.63;5.97;;;;;;;5.38;91.98;96273.03;2163675;82;21017;-84
2022/02/17 07:58:01;;;;;;;9.57;4.60;;;;;;;5.40;91.66;96271.29;2171938;81;21424;-86
2022/02/17 08:01:01;;;;;;;10.83;5.13;;;;;;;5.41;91.53;96277.75;2171009;81;21021;-84
2022/02/17 08:04:02;;;;;;;9.53;3.53;;;;;;;5.41;92.14;96276.89;2170945;82;21005;-83
2022/02/17 08:07:02;;;;;;;10.17;4.80;;;;;;;5.42;91.76;96268.25;2171417;81;21032;-83
2022/02/17 08:10:03;;;;;;;10.63;4.73;;;;;;;5.44;91.51;96270.39;2171691;81;21024;-84
2022/02/17 08:13:03;;;;;;;14.37;7.67;;;;;;;5.44;90.92;96293.67;2172600;81;20910;-83
2022/02/17 08:16:04;;;;;;;14.73;7.10;;;;;;;5.44;91.20;96291.09;2171505;81;20989;-85
2022/02/17 08:19:07;;;;;;;11.23;4.63;;;;;;;5.42;91.50;96298.01;2171532;81;21021;-87
2022/02/17 08:22:07;;;;;;;13.47;5.70;;;;;;;5.41;91.06;96319.14;2171699;81;21076;-85
2022/02/17 08:25:08;;;;;;;16.53;5.10;;;;;;;5.40;91.65;96324.33;2172208;81;21408;-85
2022/02/17 08:28:09;;;;;;;8.93;3.80;;;;;;;5.42;92.03;96314.82;2172078;81;20997;-85
2022/02/17 08:31:09;;;;;;;6.63;2.87;;;;;;;5.46;91.86;96294.52;2171080;81;21012;-84
2022/02/17 08:34:10;;;;;;;11.43;3.23;;;;;;;5.59;91.87;96293.53;2171445;82;21325;-85
2022/02/17 08:37:11;;;;;;;3.23;2.00;;;;;;;5.64;90.73;96304.70;2171855;82;20989;-85
2022/02/17 08:40:11;;;;;;;2.80;1.63;;;;;;;5.64;90.73;96285.30;2171469;81;21017;-84
2022/02/17 08:43:13;;;;;;;2.63;1.87;;;;;;;5.66;90.29;96269.31;2178894;81;20986;-85
2022/02/17 08:46:14;;;;;;;6.10;2.70;;;;;;;5.68;90.08;96244.71;2182712;82;20985;-84
2022/02/17 08:49:15;;;;;;;3.23;2.30;;;;;;;5.72;89.98;96245.10;2182447;82;20943;-84
2022/02/17 08:52:16;;;;;;;2.30;1.77;;;;;;;5.75;89.58;96210.98;2182635;82;21005;-83
2022/02/17 08:55:16;;;;;;;4.87;1.90;;;;;;;5.82;89.31;96218.23;2181461;82;20958;-83
2022/02/17 08:58:17;;;;;;;6.17;3.33;;;;;;;5.91;88.92;96214.72;2181250;82;20997;-84
2022/02/17 09:01:17;;;;;;;9.90;3.67;;;;;;;6.01;88.59;96207.26;2180522;82;21029;-84
2022/02/17 09:04:18;;;;;;;6.80;3.50;;;;;;;6.20;88.18;96203.59;2180774;82;20997;-82
2022/02/17 09:07:18;;;;;;;4.80;3.13;;;;;;;6.38;87.62;96229.69;2180586;82;20969;-86
2022/02/17 09:10:19;;;;;;;10.90;5.17;;;;;;;6.42;86.88;96212.37;2181198;82;21060;-85
2022/02/17 09:13:19;;;;;;;6.83;3.23;;;;;;;6.47;86.82;96222.23;2181967;82;21410;-85
2022/02/17 09:16:20;;;;;;;4.73;3.10;;;;;;;6.60;86.52;96209.52;2181587;82;20997;-84
2022/02/17 09:19:21;;;;;;;3.40;2.13;;;;;;;6.76;85.87;96201.92;2181749;82;21017;-84
2022/02/17 09:22:21;;;;;;;3.43;2.10;;;;;;;6.96;85.61;96202.50;2182473;82;21400;-86
2022/02/17 09:25:22;;;;;;;2.87;1.90;;;;;;;7.10;84.73;96204.01;2182568;82;21313;-86
2022/02/17 09:28:22;;;;;;;4.03;2.10;;;;;;;7.02;84.24;96220.55;2183168;82;21281;-86
2022/02/17 09:31:23;;;;;;;4.53;2.37;;;;;;;7.05;84.07;96218.36;2182894;82;20997;-83
2022/02/17 09:34:24;;;;;;;3.77;2.40;;;;;;;7.08;84.07;96233.87;2183527;82;21045;-84
2022/02/17 09:37:24;;;;;;;2.43;1.50;;;;;;;7.14;83.87;96225.98;2181623;82;20931;-84
2022/02/17 09:40:25;;;;;;;3.10;1.90;;;;;;;7.10;83.73;96220.87;2181626;82;21014;-84
2022/02/17 09:43:25;;;;;;;7.93;2.30;;;;;;;7.02;84.06;96204.14;2160618;82;21042;-83
2022/02/17 09:46:26;;;;;;;8.37;3.20;;;;;;;7.08;84.05;96209.22;2152688;83;21014;-84
2022/02/17 09:49:27;;;;;;;9.33;3.47;;;;;;;7.18;83.57;96220.30;2153146;83;21206;-81
2022/02/17 09:52:28;;;;;;;4.73;2.50;;;;;;;7.23;82.79;96212.00;2153036;83;21035;-84
2022/02/17 09:55:28;;;;;;;5.43;2.40;;;;;;;7.30;82.45;96226.14;2152567;83;20939;-84
2022/02/17 09:58:31;;;;;;;5.43;1.90;;;;;;;7.43;81.66;96219.44;2134681;83;21003;-83
2022/02/17 10:01:31;;;;;;;7.87;2.83;;;;;;;7.57;80.91;96222.20;2152129;83;21053;-85
2022/02/17 10:04:32;;;;;;;10.07;2.83;;;;;;;7.70;80.33;96189.52;2152902;83;21015;-84
2022/02/17 10:07:32;;;;;;;10.20;3.07;;;;;;;7.82;80.39;96206.20;2152320;83;21011;-80
2022/02/17 10:10:33;;;;;;;8.33;2.70;;;;;;;7.87;79.71;96231.20;2153530;83;21049;-83
2022/02/17 10:13:33;;;;;;;6.50;2.87;;;;;;;7.93;79.52;96236.72;2152843;83;21030;-83
2022/02/17 10:16:34;;;;;;;9.20;3.40;;;;;;;8.06;79.29;96221.30;2152530;83;20966;-81
2022/02/17 10:19:34;;;;;;;6.83;2.73;;;;;;;8.16;77.40;96214.17;2151866;83;21057;-82
2022/02/17 10:22:37;;;;;;;7.87;3.20;;;;;;;8.28;76.99;96194.42;2152302;83;21402;-82
2022/02/17 10:25:37;;;;;;;16.43;3.33;;;;;;;8.41;77.54;96188.55;2152352;83;20967;-81
2022/02/17 10:28:38;;;;;;;11.50;3.93;;;;;;;8.58;75.79;96179.94;2152371;83;21059;-82
2022/02/17 10:31:38;;;;;;;7.10;3.03;;;;;;;8.73;74.35;96166.61;2153263;83;20979;-82
2022/02/17 10:34:38;;;;;;;10.67;3.43;;;;;;;8.86;72.67;96162.82;2152519;83;20983;-81
2022/02/17 10:37:39;;;;;;;9.20;3.30;;;;;;;8.98;72.71;96162.12;2152570;83;20956;-80
2022/02/17 10:40:39;;;;;;;12.97;3.20;;;;;;;8.87;70.58;96180.14;2152664;83;21424;-83
2022/02/17 10:43:40;;;;;;;9.67;2.90;;;;;;;8.77;71.64;96163.48;2152582;82;20984;-83
2022/02/17 10:46:41;;;;;;;9.00;4.03;;;;;;;8.67;70.09;96202.27;2152263;83;21208;-83
2022/02/17 10:49:42;;;;;;;7.77;3.07;;;;;;;8.71;70.86;96200.90;2151290;83;21214;-82
2022/02/17 10:52:42;;;;;;;9.03;3.50;;;;;;;8.94;69.55;96213.37;2150879;83;21010;-83
2022/02/17 10:55:43;;;;;;;7.27;3.87;;;;;;;9.23;69.00;96199.65;2151089;83;20967;-75
2022/02/17 10:58:46;;;;;;;9.13;4.17;;;;;;;9.39;67.65;96193.61;2151804;83;21007;-81
2022/02/17 11:01:45;;;;;;;8.27;3.97;;;;;;;9.43;66.93;96204.35;2151653;82;21046;-82
2022/02/17 11:04:46;;;;;;;8.13;3.40;;;;;;;9.52;68.34;96202.36;2150945;83;21430;-81
2022/02/17 11:07:46;;;;;;;11.60;3.00;;;;;;;9.57;67.12;96204.44;2150987;83;21054;-84
2022/02/17 11:10:47;;;;;;;8.10;3.50;;;;;;;9.63;66.80;96206.47;2151159;83;21078;-83
2022/02/17 11:13:47;;;;;;;7.00;3.20;;;;;;;9.74;66.53;96219.62;2151657;83;21420;-82
2022/02/17 11:16:48;;;;;;;6.93;2.73;;;;;;;9.86;65.93;96178.90;2151116;83;21354;-83
2022/02/17 11:19:49;;;;;;;6.03;2.80;;;;;;;10.00;65.40;96216.75;2150887;83;21034;-81
2022/02/17 11:22:51;;;;;;;10.27;4.50;;;;;;;10.08;64.84;96220.85;2134885;83;21027;-79
2022/02/17 11:25:52;;;;;;;6.73;3.10;;;;;;;10.18;65.09;96207.97;2152269;83;21363;-82
2022/02/17 11:28:52;;;;;;;8.27;2.50;;;;;;;10.41;63.19;96196.94;2152112;83;21010;-81
2022/02/17 11:31:53;;;;;;;6.93;2.80;;;;;;;10.75;61.40;96209.81;2151935;83;21364;-82
2022/02/17 11:34:55;;;;;;;7.27;2.27;;;;;;;10.98;61.00;96212.16;2152510;83;20959;-81
2022/02/17 11:37:56;;;;;;;9.60;2.40;;;;;;;11.05;59.75;96200.62;2151521;83;20985;-82
2022/02/17 11:40:56;;;;;;;4.20;2.33;;;;;;;10.94;57.08;96188.36;2150876;83;21407;-82
2022/02/17 11:43:57;;;;;;;12.53;2.47;;;;;;;10.77;56.98;96189.75;2171712;81;21446;-82
2022/02/17 11:47:03;;;;;;;6.03;2.53;;;;;;;10.63;58.27;96188.02;2180196;82;20950;-82
2022/02/17 11:49:59;;;;;;;4.43;2.07;;;;;;;10.52;57.63;96195.31;2179624;81;22055;-81
2022/02/17 11:53:00;;;;;;;6.73;3.20;;;;;;;10.44;56.36;96181.20;2180566;82;20985;-82
2022/02/17 11:56:00;;;;;;;11.27;3.87;;;;;;;10.36;56.95;96186.20;2180885;82;21005;-82
2022/02/17 11:59:01;;;;;;;7.07;2.80;;;;;;;10.20;58.00;96193.17;2181678;82;21524;-82
2022/02/17 12:02:02;;;;;;;7.93;3.00;;;;;;;10.22;55.61;96185.30;2181229;82;20997;-82
2022/02/17 12:05:02;;;;;;;8.40;3.73;;;;;;;10.30;55.25;96189.84;2181394;82;20973;-84
2022/02/17 12:08:03;;;;;;;5.53;2.23;;;;;;;10.33;56.01;96166.29;2182327;82;20928;-83
2022/02/17 12:11:03;;;;;;;8.33;2.63;;;;;;;10.29;55.60;96196.41;2182946;82;21048;-84
2022/02/17 12:14:05;;;;;;;5.83;2.60;;;;;;;10.24;57.11;96182.65;2182572;82;21220;-82
2022/02/17 12:17:05;;;;;;;5.13;3.27;;;;;;;10.10;53.03;96200.81;2181847;82;20938;-83
2022/02/17 12:20:06;;;;;;;10.83;3.80;;;;;;;9.99;53.73;96213.73;2182433;82;21018;-84
2022/02/17 12:23:07;;;;;;;8.23;4.17;;;;;;;9.90;53.69;96204.42;2182918;82;20982;-82
2022/02/17 12:26:07;;;;;;;7.27;3.40;;;;;;;9.86;55.74;96218.43;2181527;82;21025;-82
2022/02/17 12:29:08;;;;;;;16.70;3.40;;;;;;;9.83;56.33;96231.09;2181997;82;21058;-81
2022/02/17 12:32:09;;;;;;;6.43;2.87;;;;;;;9.80;53.26;96227.72;2181621;82;21021;-81
2022/02/17 12:35:09;;;;;;;3.63;2.07;;;;;;;9.71;52.96;96238.38;2181430;82;20993;-82
2022/02/17 12:38:10;;;;;;;6.97;3.33;;;;;;;9.66;52.93;96231.13;2181166;82;21041;-82
2022/02/17 12:41:11;;;;;;;19.07;1.83;;;;;;;9.59;53.17;96246.06;2180100;82;21072;-80
2022/02/17 12:44:12;;;;;;;9.03;3.27;;;;;;;9.56;52.09;96255.25;2159731;81;21007;-80
2022/02/17 12:47:12;;;;;;;6.87;3.40;;;;;;;9.44;53.54;96281.57;2151557;83;20987;-83
2022/02/17 12:50:13;;;;;;;6.60;2.33;;;;;;;9.31;51.45;96298.38;2151523;83;21009;-81
2022/02/17 12:53:13;;;;;;;5.93;2.13;;;;;;;9.31;51.87;96281.02;2151084;83;20935;-81
2022/02/17 12:56:14;;;;;;;10.10;3.40;;;;;;;9.25;51.45;96281.16;2151214;83;20955;-81
2022/02/17 12:59:14;;;;;;;3.93;2.40;;;;;;;9.20;53.27;96292.13;2150868;83;21354;-79
2022/02/17 13:02:15;;;;;;;4.67;2.10;;;;;;;9.10;53.31;96286.28;2150793;83;21519;-81
2022/02/17 13:05:15;;;;;;;6.40;2.50;;;;;;;8.98;53.73;96319.52;2150845;83;21014;-80
2022/02/17 13:08:16;;;;;;;14.33;5.10;;;;;;;8.89;54.41;96299.33;2151577;83;20983;-80
2022/02/17 13:11:17;;;;;;;8.67;2.87;;;;;;;8.82;55.63;96309.45;2151292;83;21038;-81
2022/02/17 13:14:17;;;;;;;5.00;2.53;;;;;;;8.74;54.85;96331.31;2151347;83;20959;-81
2022/02/17 13:17:25;;;;;;;5.80;2.77;;;;;;;8.63;55.99;96324.55;2151277;83;20994;-79
2022/02/17 13:20:26;;;;;;;5.57;2.73;;;;;;;8.52;56.97;96323.06;2149130;83;21053;-81
2022/02/17 13:23:27;;;;;;;7.03;3.23;;;;;;;8.44;56.51;96364.81;2152093;83;20966;-81
2022/02/17 13:26:28;;;;;;;8.87;3.80;;;;;;;8.26;58.05;96335.23;2150800;82;21493;-80
2022/02/17 13:29:28;;;;;;;9.57;3.83;;;;;;;8.15;57.80;96315.95;2151307;82;21002;-80
2022/02/17 13:32:29;;;;;;;9.10;3.37;;;;;;;8.13;57.16;96346.31;2150995;83;21030;-80
2022/02/17 13:35:30;;;;;;;8.03;3.13;;;;;;;8.18;57.10;96336.69;2151417;83;21358;-79
2022/02/17 13:38:31;;;;;;;9.40;3.43;;;;;;;8.20;56.88;96343.16;2151685;82;21479;-81
2022/02/17 13:41:31;;;;;;;12.53;4.90;;;;;;;8.24;57.17;96348.27;2152119;83;21071;-81
2022/02/17 13:44:32;;;;;;;14.17;3.07;;;;;;;8.25;57.90;96355.17;2153710;81;21116;-81
2022/02/17 13:47:32;;;;;;;12.50;3.53;;;;;;;8.25;57.50;96384.20;2153318;83;21812;-81
2022/02/17 13:50:33;;;;;;;8.20;3.27;;;;;;;8.18;59.74;96397.75;2152951;83;20963;-81
2022/02/17 13:53:33;;;;;;;7.73;2.80;;;;;;;8.09;58.94;96377.12;2152298;83;21014;-80
2022/02/17 13:56:34;;;;;;;7.77;3.93;;;;;;;8.02;60.42;96362.53;2151819;83;21011;-80
2022/02/17 13:59:34;;;;;;;7.77;2.40;;;;;;;7.96;59.06;96362.64;2151881;83;21379;-80
2022/02/17 14:02:35;;;;;;;8.70;3.00;;;;;;;8.06;58.96;96362.03;2151178;83;21787;-78
2022/02/17 14:05:35;;;;;;;7.30;2.60;;;;;;;8.16;57.87;96357.94;2150177;83;21623;-80
2022/02/17 14:08:36;;;;;;;15.33;2.83;;;;;;;8.26;57.27;96375.08;2151048;83;20943;-79
2022/02/17 14:11:36;;;;;;;7.37;3.13;;;;;;;8.33;57.50;96355.47;2149859;83;21089;-82
2022/02/17 14:14:37;;;;;;;8.60;2.40;;;;;;;8.38;56.70;96357.58;2151080;83;20955;-80
2022/02/17 14:17:38;;;;;;;7.13;2.63;;;;;;;8.49;56.39;96353.02;2150913;83;21355;-80
2022/02/17 14:20:39;;;;;;;8.40;2.77;;;;;;;8.54;55.34;96348.59;2151303;83;21058;-82
2022/02/17 14:23:39;;;;;;;6.37;2.33;;;;;;;8.56;56.01;96349.41;2150715;83;20987;-81
2022/02/17 14:26:40;;;;;;;11.83;3.30;;;;;;;8.54;55.05;96358.55;2150440;83;21030;-82
2022/02/17 14:29:41;;;;;;;8.47;2.53;;;;;;;8.54;55.29;96371.98;2151747;83;20966;-82
2022/02/17 14:32:41;;;;;;;5.73;2.67;;;;;;;8.54;54.46;96379.79;2151228;83;20975;-82
2022/02/17 14:35:42;;;;;;;9.57;4.20;;;;;;;8.55;55.23;96388.00;2151086;83;20971;-82
2022/02/17 14:38:42;;;;;;;14.87;4.20;;;;;;;8.52;54.40;96393.27;2151983;83;20916;-82